In Rescue
 
Open Full Screen Window  High Contrast Mode
Wind Gusting 00 knots
05
January 22, 2020 6:04 PM CST
Weather Information
Wind Direction
  060 °
Wind Speed
  05 kt (6 mph)
Wind Gust
  00 kt (0 mph)
Altimeter
29.90 in
Visibility
---
Temperature
-03° C
27° F
Dewpoint
-06° C
21° F
Humidity
80%
1hr Rain Fall
00.00 in.
24hr Rain Fall
00.00 in.
Sky Condition
Overcast @ 1,200 ft

METAR KROX 230004Z AUTO 06005KT OVC012 M03/M06 A2990 RMK AO2 PWINO

FAA Disclaimer: The data displayed is for advisory purposes only and is not to be used for flight planning or operations.